Time;durP1;ratioP1;P1;durP2;ratioP2;P2;SDS_P1;SDS_P2;PMS_P1;PMS_P2;Temp;Humidity;BMP_temperature;BMP_pressure;BME280_temperature;BME280_humidity;BME280_pressure;Samples;Min_cycle;Max_cycle;Signal;HPM_P1;HPM_P2
2021/06/26 00:01:18;;;;;;;;;;;;;;;-142.75;75.97;77141.19;5059265;28;20370;-80
2021/06/26 00:03:43;;;;;;;;;;;;;;;-142.75;75.92;77147.09;5064074;28;19921;-79
2021/06/26 00:06:08;;;;;;;;;;;;;;;-142.75;75.60;77156.94;5053625;28;19995;-80
2021/06/26 00:08:33;;;;;;;;;;;;;;;-142.75;75.61;77164.81;5058602;28;19923;-80
2021/06/26 00:10:59;;;;;;;;;;;;;;;-142.75;75.62;77172.69;5065920;28;19979;-80
2021/06/26 00:13:24;;;;;;;;;;;;;;;-142.75;75.58;77172.69;5069747;28;19965;-81
2021/06/26 00:15:49;;;;;;;;;;;;;;;-142.75;75.60;77178.59;5067997;28;20003;-80
2021/06/26 00:18:15;;;;;;;;;;;;;;;-142.75;76.08;77172.69;5062276;28;20009;-81
2021/06/26 00:20:41;;;;;;;;;;;;;;;-142.75;76.24;77170.72;5057274;28;19923;-78
2021/06/26 00:23:06;;;;;;;;;;;;;;;-142.75;76.95;77153.00;5053212;28;19921;-79
2021/06/26 00:25:32;;;;;;;;;;;;;;;-142.75;77.46;77147.09;5069763;28;19916;-79
2021/06/26 00:27:57;;;;;;;;;;;;;;;-142.75;77.74;77147.09;5061120;28;20370;-79
2021/06/26 00:30:23;;;;;;;;;;;;;;;-142.75;77.56;77143.16;5057907;28;19917;-79
2021/06/26 00:32:48;;;;;;;;;;;;;;;-142.75;77.70;77147.09;5062860;28;19921;-78
2021/06/26 00:35:13;;;;;;;;;;;;;;;-142.75;77.70;77145.13;5061387;28;19981;-79
2021/06/26 00:37:39;;;;;;;;;;;;;;;-142.75;78.05;77147.09;5052791;28;19956;-80
2021/06/26 00:40:05;;;;;;;;;;;;;;;-142.75;77.94;77145.13;5060630;28;19931;-79
2021/06/26 00:42:31;;;;;;;;;;;;;;;-142.75;77.87;77145.13;5057079;28;19987;-79
2021/06/26 00:44:56;;;;;;;;;;;;;;;-142.75;78.04;77135.28;5067688;28;19966;-78
2021/06/26 00:47:21;;;;;;;;;;;;;;;-142.75;78.14;77143.16;5056543;28;19917;-79
2021/06/26 00:49:47;;;;;;;;;;;;;;;-142.75;78.09;77145.13;5051949;28;19917;-81
2021/06/26 00:52:12;;;;;;;;;;;;;;;-142.75;78.20;77153.00;5069641;28;20378;-79
2021/06/26 00:54:37;;;;;;;;;;;;;;;-142.75;78.36;77141.19;5062528;28;20401;-80
2021/06/26 00:57:04;;;;;;;;;;;;;;;-142.75;78.50;77145.13;5065809;28;20024;-79
2021/06/26 00:59:29;;;;;;;;;;;;;;;-142.75;78.57;77143.16;5052815;28;19916;-79
2021/06/26 01:01:54;;;;;;;;;;;;;;;-142.75;78.80;77147.09;5064004;28;19958;-79
2021/06/26 01:04:19;;;;;;;;;;;;;;;-142.75;79.19;77145.13;5059916;28;19939;-78
2021/06/26 01:06:45;;;;;;;;;;;;;;;-142.75;79.27;77153.00;5062538;28;19917;-79
2021/06/26 01:09:10;;;;;;;;;;;;;;;-142.75;79.35;77153.00;5059433;28;19917;-78
2021/06/26 01:11:35;;;;;;;;;;;;;;;-142.75;79.50;77156.94;5057409;28;19924;-79
2021/06/26 01:14:02;;;;;;;;;;;;;;;-142.75;79.52;77153.00;5067267;28;20394;-77
2021/06/26 01:16:27;;;;;;;;;;;;;;;-142.75;79.43;77156.94;5058713;28;20003;-77
2021/06/26 01:18:52;;;;;;;;;;;;;;;-142.75;79.41;77156.94;5066021;28;19960;-78
2021/06/26 01:21:17;;;;;;;;;;;;;;;-142.75;79.68;77164.81;5056156;28;20316;-78
2021/06/26 01:23:49;;;;;;;;;;;;;;;-142.75;79.74;77166.78;5067701;28;19942;-77
2021/06/26 01:26:14;;;;;;;;;;;;;;;-142.75;79.72;77164.81;5064531;28;19948;-78
2021/06/26 01:28:40;;;;;;;;;;;;;;;-142.75;79.83;77162.84;5069129;28;20010;-78
2021/06/26 01:31:05;;;;;;;;;;;;;;;-142.75;79.84;77162.84;5060742;28;20440;-78
2021/06/26 01:33:30;;;;;;;;;;;;;;;-142.75;79.85;77164.81;5063452;28;19929;-78
2021/06/26 01:35:56;;;;;;;;;;;;;;;-142.75;79.78;77164.81;5059124;28;19925;-78
2021/06/26 01:38:21;;;;;;;;;;;;;;;-142.75;79.69;77166.78;5059576;28;19925;-80
2021/06/26 01:40:46;;;;;;;;;;;;;;;-142.75;79.75;77166.78;5060707;28;20297;-78
2021/06/26 01:43:12;;;;;;;;;;;;;;;-142.75;79.58;77166.78;5056109;28;20293;-76
2021/06/26 01:45:37;;;;;;;;;;;;;;;-142.75;79.69;77168.75;5069154;28;19916;-77
2021/06/26 01:48:03;;;;;;;;;;;;;;;-142.75;79.75;77168.75;5060390;28;20385;-79
2021/06/26 01:50:29;;;;;;;;;;;;;;;-142.75;80.05;77170.72;5060574;28;19916;-79
2021/06/26 01:52:54;;;;;;;;;;;;;;;-142.75;80.09;77170.72;5065315;28;19922;-78
2021/06/26 01:55:20;;;;;;;;;;;;;;;-142.75;80.08;77172.69;5065957;28;20011;-77
2021/06/26 01:57:47;;;;;;;;;;;;;;;-142.75;80.18;77172.69;5056263;28;19917;-78
2021/06/26 02:00:12;;;;;;;;;;;;;;;-142.75;80.00;77184.50;5054770;28;19935;-79
2021/06/26 02:02:38;;;;;;;;;;;;;;;-142.75;80.10;77174.66;5056263;28;20008;-77
2021/06/26 02:05:04;;;;;;;;;;;;;;;-142.75;80.29;77174.66;5056703;28;19921;-77
2021/06/26 02:07:29;;;;;;;;;;;;;;;-142.75;80.33;77178.59;5050969;28;19924;-77
2021/06/26 02:09:55;;;;;;;;;;;;;;;-142.75;80.32;77178.59;5058329;28;20266;-79
2021/06/26 02:12:20;;;;;;;;;;;;;;;-142.75;80.35;77170.72;5055255;28;19917;-77
2021/06/26 02:14:45;;;;;;;;;;;;;;;-142.75;80.42;77166.78;5056297;28;19939;-80
2021/06/26 02:17:10;;;;;;;;;;;;;;;-142.75;80.27;77176.63;5063756;28;19916;-79
2021/06/26 02:19:35;;;;;;;;;;;;;;;-142.75;80.30;77172.69;5054418;28;19917;-77
2021/06/26 02:22:01;;;;;;;;;;;;;;;-142.75;80.29;77164.81;5060669;28;19944;-78
2021/06/26 02:24:26;;;;;;;;;;;;;;;-142.75;80.46;77164.81;5063282;28;20424;-80
2021/06/26 02:26:51;;;;;;;;;;;;;;;-142.75;80.39;77162.84;5059922;28;19917;-76
2021/06/26 02:29:17;;;;;;;;;;;;;;;-142.75;80.14;77172.69;5061961;28;19916;-77
2021/06/26 02:31:42;;;;;;;;;;;;;;;-142.75;80.08;77168.75;5060988;28;20340;-78
2021/06/26 02:34:10;;;;;;;;;;;;;;;-142.75;80.34;77160.88;5064344;28;19943;-79
2021/06/26 02:36:35;;;;;;;;;;;;;;;-142.75;80.33;77158.91;5058774;28;19946;-79
2021/06/26 02:39:00;;;;;;;;;;;;;;;-142.75;80.40;77164.81;5058285;28;19916;-77
2021/06/26 02:41:25;;;;;;;;;;;;;;;-142.75;80.36;77158.91;5058158;28;19959;-79
2021/06/26 02:43:51;;;;;;;;;;;;;;;-142.75;80.25;77156.94;5063826;28;19928;-80
2021/06/26 02:46:16;;;;;;;;;;;;;;;-142.75;80.43;77156.94;5063461;28;19932;-79
2021/06/26 02:48:41;;;;;;;;;;;;;;;-142.75;80.45;77162.84;5058614;28;19917;-78
2021/06/26 02:51:06;;;;;;;;;;;;;;;-142.75;80.31;77160.88;5056568;28;20378;-78
2021/06/26 02:53:31;;;;;;;;;;;;;;;-142.75;80.26;77156.94;5054690;28;20408;-77
2021/06/26 02:55:57;;;;;;;;;;;;;;;-142.75;80.23;77162.84;5055442;28;19996;-78
2021/06/26 02:58:23;;;;;;;;;;;;;;;-142.75;80.36;77156.94;5068996;28;19917;-77
2021/06/26 03:00:48;;;;;;;;;;;;;;;-142.75;80.37;77162.84;5059793;28;19970;-77
2021/06/26 03:03:14;;;;;;;;;;;;;;;-142.75;80.47;77160.88;5067581;28;19924;-78
2021/06/26 03:05:39;;;;;;;;;;;;;;;-142.75;80.57;77154.97;5065510;28;19977;-77
2021/06/26 03:08:04;;;;;;;;;;;;;;;-142.75;80.41;77168.75;5053458;28;19959;-77
2021/06/26 03:10:29;;;;;;;;;;;;;;;-142.75;80.47;77158.91;5056601;28;19978;-77
2021/06/26 03:12:54;;;;;;;;;;;;;;;-142.75;80.42;77162.84;5060997;28;19927;-78
2021/06/26 03:15:20;;;;;;;;;;;;;;;-142.75;80.45;77170.72;5062035;28;19946;-78
2021/06/26 03:17:45;;;;;;;;;;;;;;;-142.75;80.52;77176.63;5067374;28;20396;-79
2021/06/26 03:20:10;;;;;;;;;;;;;;;-142.75;80.48;77174.66;5062870;28;19917;-78
2021/06/26 03:22:35;;;;;;;;;;;;;;;-142.75;80.74;77164.81;5071162;28;19920;-77
2021/06/26 03:25:01;;;;;;;;;;;;;;;-142.75;80.66;77158.91;5096728;22;19925;-80
2021/06/26 03:27:26;;;;;;;;;;;;;;;-142.75;80.61;77164.81;5051332;28;20302;-81
2021/06/26 03:29:51;;;;;;;;;;;;;;;-142.75;80.66;77158.91;5052750;28;19942;-81
2021/06/26 03:32:17;;;;;;;;;;;;;;;-142.75;80.57;77168.75;5081122;28;19916;-81
2021/06/26 03:34:42;;;;;;;;;;;;;;;-142.75;80.63;77178.59;5073351;28;19962;-78
2021/06/26 03:37:07;;;;;;;;;;;;;;;-142.75;80.59;77176.63;5072199;28;19915;-78
2021/06/26 03:39:32;;;;;;;;;;;;;;;-142.75;80.75;77180.56;5082391;28;20392;-78
2021/06/26 03:41:58;;;;;;;;;;;;;;;-142.75;80.81;77172.69;5067736;28;19920;-82
2021/06/26 03:44:23;;;;;;;;;;;;;;;-142.75;81.00;77164.81;5076454;28;19927;-79
2021/06/26 03:46:48;;;;;;;;;;;;;;;-142.75;81.10;77164.81;5059549;28;19923;-80
2021/06/26 03:49:13;;;;;;;;;;;;;;;-142.75;81.12;77164.81;5053363;28;19916;-76
2021/06/26 03:51:39;;;;;;;;;;;;;;;-142.75;81.16;77156.94;5088841;28;19916;-80
2021/06/26 03:54:04;;;;;;;;;;;;;;;-142.75;81.16;77158.91;5090285;28;19916;-78
2021/06/26 03:56:30;;;;;;;;;;;;;;;-142.75;81.13;77153.00;5088977;28;20004;-78
2021/06/26 03:58:55;;;;;;;;;;;;;;;-142.75;81.19;77151.03;5052149;28;19917;-79
2021/06/26 04:01:20;;;;;;;;;;;;;;;-142.75;81.33;77151.03;5086216;28;20121;-78
2021/06/26 04:03:46;;;;;;;;;;;;;;;-142.75;81.38;77154.97;5051902;28;19925;-80
2021/06/26 04:06:12;;;;;;;;;;;;;;;-142.75;81.43;77156.94;5058229;28;20364;-78
2021/06/26 04:08:37;;;;;;;;;;;;;;;-142.75;81.39;77160.88;5088716;28;19951;-79
2021/06/26 04:11:02;;;;;;;;;;;;;;;-142.75;81.23;77164.81;5089800;28;19923;-77
2021/06/26 04:13:27;;;;;;;;;;;;;;;-142.75;81.20;77168.75;5079759;28;20015;-78
2021/06/26 04:15:53;;;;;;;;;;;;;;;-142.75;81.21;77164.81;5072902;28;20575;-78
2021/06/26 04:18:18;;;;;;;;;;;;;;;-142.75;81.12;77166.78;5076909;28;19916;-78
2021/06/26 04:20:43;;;;;;;;;;;;;;;-142.75;81.29;77164.81;5092941;28;19916;-78
2021/06/26 04:23:08;;;;;;;;;;;;;;;-142.75;81.30;77166.78;5093260;28;19931;-79
2021/06/26 04:25:33;;;;;;;;;;;;;;;-142.75;81.29;77166.78;5093577;28;19962;-79
2021/06/26 04:28:06;;;;;;;;;;;;;;;-142.75;81.29;77156.94;5093835;28;20007;-78
2021/06/26 04:30:31;;;;;;;;;;;;;;;-142.75;81.34;77162.84;5088091;28;19916;-78
2021/06/26 04:32:56;;;;;;;;;;;;;;;-142.75;81.29;77158.91;5093592;28;19916;-77
2021/06/26 04:35:24;;;;;;;;;;;;;;;-142.75;81.34;77156.94;5073433;28;19916;-80
2021/06/26 04:37:49;;;;;;;;;;;;;;;-142.75;81.23;77166.78;5084672;28;20423;-78
2021/06/26 04:40:15;;;;;;;;;;;;;;;-142.75;81.09;77158.91;5088591;28;19921;-79
2021/06/26 04:42:40;;;;;;;;;;;;;;;-142.75;81.16;77156.94;5078534;28;19927;-77
2021/06/26 04:45:06;;;;;;;;;;;;;;;-142.75;80.93;77153.00;5080184;28;19916;-78
2021/06/26 04:47:31;;;;;;;;;;;;;;;-142.75;81.09;77156.94;5073646;28;19917;-79
2021/06/26 04:49:56;;;;;;;;;;;;;;;-142.75;81.17;77160.88;5092207;28;19916;-79
2021/06/26 04:52:21;;;;;;;;;;;;;;;-142.75;80.98;77156.94;5093848;28;19916;-77
2021/06/26 04:54:46;;;;;;;;;;;;;;;-142.75;80.90;77162.84;5093688;28;19961;-79
2021/06/26 04:57:12;;;;;;;;;;;;;;;-142.75;81.02;77162.84;5092198;28;20312;-77
2021/06/26 04:59:37;;;;;;;;;;;;;;;-142.75;81.16;77158.91;5079710;28;19917;-79
2021/06/26 05:02:02;;;;;;;;;;;;;;;-142.75;81.09;77153.00;5077549;28;19917;-77
2021/06/26 05:04:27;;;;;;;;;;;;;;;-142.75;81.03;77153.00;5090521;28;22107;-80
2021/06/26 05:06:52;;;;;;;;;;;;;;;-142.75;80.99;77149.06;5055204;28;19921;-77
2021/06/26 05:09:18;;;;;;;;;;;;;;;-142.75;80.87;77145.13;5073274;28;19971;-80
2021/06/26 05:11:43;;;;;;;;;;;;;;;-142.75;80.90;77141.19;5056703;28;19974;-77
2021/06/26 05:14:09;;;;;;;;;;;;;;;-142.75;80.81;77143.16;5077329;28;19916;-79
2021/06/26 05:16:34;;;;;;;;;;;;;;;-142.75;80.62;77145.13;5087592;28;19916;-80
2021/06/26 05:18:59;;;;;;;;;;;;;;;-142.75;80.62;77141.19;5094497;28;19955;-78
2021/06/26 05:21:25;;;;;;;;;;;;;;;-142.75;80.70;77133.31;5087012;28;19974;-80
2021/06/26 05:23:50;;;;;;;;;;;;;;;-142.75;80.63;77137.25;5088445;28;19920;-78
2021/06/26 05:26:15;;;;;;;;;;;;;;;-142.75;80.33;77137.25;5093479;28;19916;-81
2021/06/26 05:28:41;;;;;;;;;;;;;;;-142.75;80.14;77139.22;5082996;28;20008;-80
2021/06/26 05:31:06;;;;;;;;;;;;;;;-142.75;80.07;77133.31;5072745;28;19920;-80
2021/06/26 05:33:32;;;;;;;;;;;;;;;-142.75;80.16;77127.41;5076391;28;20019;-79
2021/06/26 05:35:57;;;;;;;;;;;;;;;-142.75;80.23;77121.50;5081159;28;20373;-79
2021/06/26 05:38:22;;;;;;;;;;;;;;;-142.75;79.97;77117.56;5093164;28;19939;-78
2021/06/26 05:40:47;;;;;;;;;;;;;;;-142.75;79.50;77121.50;5081340;28;19923;-81
2021/06/26 05:43:13;;;;;;;;;;;;;;;-142.75;79.72;77117.56;5074337;28;19928;-77
2021/06/26 05:45:38;;;;;;;;;;;;;;;-142.75;79.74;77111.66;5078581;28;20327;-80
2021/06/26 05:48:03;;;;;;;;;;;;;;;-142.75;79.73;77105.75;5089284;28;20530;-81
2021/06/26 05:50:29;;;;;;;;;;;;;;;-142.75;79.51;77097.88;5090327;28;19916;-77
2021/06/26 05:52:55;;;;;;;;;;;;;;;-142.75;79.58;77088.03;5055036;28;19975;-79
2021/06/26 05:55:21;;;;;;;;;;;;;;;-142.75;79.05;77088.03;5073539;28;19970;-79
2021/06/26 05:57:46;;;;;;;;;;;;;;;-142.75;78.57;77086.06;5087248;28;19924;-80
2021/06/26 06:00:13;;;;;;;;;;;;;;;-142.75;78.36;77078.19;5062407;28;19916;-77
2021/06/26 06:02:38;;;;;;;;;;;;;;;-142.75;78.60;77072.28;5072123;28;19924;-76
2021/06/26 06:05:03;;;;;;;;;;;;;;;-142.75;78.08;77064.41;5091630;28;19916;-80
2021/06/26 06:07:29;;;;;;;;;;;;;;;-142.75;77.69;77066.38;5090506;28;19959;-78
2021/06/26 06:09:54;;;;;;;;;;;;;;;-142.75;77.74;77062.44;5072182;28;20405;-78
2021/06/26 06:12:19;;;;;;;;;;;;;;;-142.75;77.22;77062.44;5059419;28;20337;-78
2021/06/26 06:14:44;;;;;;;;;;;;;;;-142.75;76.75;77060.47;5082729;28;19920;-79
2021/06/26 06:17:09;;;;;;;;;;;;;;;-142.75;76.58;77044.72;5077482;28;19999;-80
2021/06/26 06:19:34;;;;;;;;;;;;;;;-142.75;76.37;77027.00;5092355;28;19920;-79
2021/06/26 06:22:00;;;;;;;;;;;;;;;-142.75;76.23;77011.25;5080355;28;19935;-78
2021/06/26 06:24:25;;;;;;;;;;;;;;;-142.75;75.23;76991.56;5087492;28;19928;-80
2021/06/26 06:26:50;;;;;;;;;;;;;;;-142.75;75.29;76958.09;5063066;28;19916;-80
2021/06/26 06:29:16;;;;;;;;;;;;;;;-142.75;73.77;76950.22;5081996;28;19916;-79
2021/06/26 06:31:41;;;;;;;;;;;;;;;-142.75;73.59;76932.50;5075916;28;19916;-78
2021/06/26 06:34:06;;;;;;;;;;;;;;;-142.75;73.08;76916.75;5072986;28;19916;-77
2021/06/26 06:36:31;;;;;;;;;;;;;;;-142.75;71.97;76902.97;5062882;28;19917;-77
2021/06/26 06:38:56;;;;;;;;;;;;;;;-142.75;71.12;76916.75;5068484;28;19917;-79
2021/06/26 06:41:22;;;;;;;;;;;;;;;-142.75;70.77;76936.44;5072825;28;20293;-79
2021/06/26 06:43:47;;;;;;;;;;;;;;;-142.75;71.33;76932.50;5081088;28;19955;-79
2021/06/26 06:46:13;;;;;;;;;;;;;;;-142.75;71.20;76948.25;5072297;28;19916;-79
2021/06/26 06:48:38;;;;;;;;;;;;;;;-142.75;71.22;76964.00;5084801;28;19920;-80
2021/06/26 06:51:03;;;;;;;;;;;;;;;-142.75;70.63;76965.97;5078221;28;19935;-76
2021/06/26 06:53:28;;;;;;;;;;;;;;;-142.75;71.59;76946.28;5083424;28;19916;-80
2021/06/26 06:55:58;;;;;;;;;;;;;;;-142.75;71.66;76934.47;5090014;28;20003;-80
2021/06/26 06:58:23;;;;;;;;;;;;;;;-142.75;71.32;76901.00;5091058;28;19990;-79
2021/06/26 07:00:48;;;;;;;;;;;;;;;-142.75;70.96;76891.16;5069313;28;20748;-78
2021/06/26 07:03:13;;;;;;;;;;;;;;;-142.75;69.86;76834.06;5078651;28;20340;-81
2021/06/26 07:05:39;;;;;;;;;;;;;;;-142.75;66.85;76780.94;5076188;28;20590;-77
2021/06/26 07:08:04;;;;;;;;;;;;;;;-142.75;66.45;76788.81;5084406;28;19924;-79
2021/06/26 07:10:29;;;;;;;;;;;;;;;-142.75;66.17;76775.03;5084225;28;19916;-80
2021/06/26 07:12:55;;;;;;;;;;;;;;;-142.75;66.27;76812.41;5078227;28;19920;-78
2021/06/26 07:15:20;;;;;;;;;;;;;;;-142.75;65.43;76814.38;5078001;28;20030;-79
2021/06/26 07:17:45;;;;;;;;;;;;;;;-142.75;65.17;76794.69;5065337;28;19917;-78
2021/06/26 07:20:11;;;;;;;;;;;;;;;-142.75;64.37;76769.13;5064635;28;19916;-77
2021/06/26 07:22:36;;;;;;;;;;;;;;;-142.75;64.85;76727.78;5079351;28;19980;-80
2021/06/26 07:25:01;;;;;;;;;;;;;;;-142.75;62.10;76676.59;5082620;28;19924;-80
2021/06/26 07:27:26;;;;;;;;;;;;;;;-142.75;61.56;76660.84;5079947;28;19916;-78
2021/06/26 07:29:52;;;;;;;;;;;;;;;-142.75;62.34;76625.41;5079220;28;20400;-80
2021/06/26 07:32:17;;;;;;;;;;;;;;;-142.75;61.81;76593.91;5080615;28;20385;-79
2021/06/26 07:34:42;;;;;;;;;;;;;;;-142.75;60.27;76568.31;5086792;28;19943;-79
2021/06/26 07:37:07;;;;;;;;;;;;;;;-142.75;60.62;76593.91;5077536;28;19978;-77
2021/06/26 07:39:33;;;;;;;;;;;;;;;-142.75;61.75;76593.91;5062894;28;19923;-78
2021/06/26 07:41:58;;;;;;;;;;;;;;;-142.75;59.63;76527.00;5077801;28;19967;-78
2021/06/26 07:44:24;;;;;;;;;;;;;;;-142.75;60.67;76609.66;5081832;28;19916;-79
2021/06/26 07:46:50;;;;;;;;;;;;;;;-142.75;60.76;76588.00;5076105;28;19916;-77
2021/06/26 07:49:15;;;;;;;;;;;;;;;-142.75;61.25;76615.56;5077640;28;20302;-80
2021/06/26 07:51:40;;;;;;;;;;;;;;;-142.75;62.03;76625.41;5074934;28;19983;-80
2021/06/26 07:54:05;;;;;;;;;;;;;;;-142.75;60.56;76570.28;5081886;28;19969;-81
2021/06/26 07:56:30;;;;;;;;;;;;;;;-142.75;61.63;76558.47;5072548;28;19924;-78
2021/06/26 07:58:56;;;;;;;;;;;;;;;-142.75;61.52;76495.50;5057774;28;19917;-79
2021/06/26 08:01:21;;;;;;;;;;;;;;;-142.75;57.45;76442.34;5086267;28;19987;-80
2021/06/26 08:03:46;;;;;;;;;;;;;;;-142.75;58.60;76371.47;5072796;28;19928;-79
2021/06/26 08:06:12;;;;;;;;;;;;;;;-142.75;56.93;76377.38;5070853;28;19916;-82
2021/06/26 08:08:37;;;;;;;;;;;;;;;-142.75;56.69;76420.69;5079315;28;19916;-78
2021/06/26 08:11:02;;;;;;;;;;;;;;;-142.75;58.07;76412.81;5078914;28;19916;-78
2021/06/26 08:13:27;;;;;;;;;;;;;;;-142.75;56.22;76452.19;5063113;28;19924;-78
2021/06/26 08:15:53;;;;;;;;;;;;;;;-142.75;57.17;76509.28;5079256;28;19915;-77
2021/06/26 08:18:18;;;;;;;;;;;;;;;-142.75;58.63;76464.00;5075654;28;19971;-79
2021/06/26 08:20:43;;;;;;;;;;;;;;;-142.75;56.23;76462.03;5074131;28;19923;-80
2021/06/26 08:23:09;;;;;;;;;;;;;;;-142.75;57.28;76363.59;5084737;28;20015;-78
2021/06/26 08:25:34;;;;;;;;;;;;;;;-142.75;55.46;76310.47;5073646;28;20367;-77
2021/06/26 08:27:59;;;;;;;;;;;;;;;-142.75;54.94;76373.44;5076753;28;19917;-80
2021/06/26 08:30:24;;;;;;;;;;;;;;;-142.75;54.85;76432.50;5084385;28;19931;-78
2021/06/26 08:32:50;;;;;;;;;;;;;;;-142.75;56.22;76436.44;5063951;28;19931;-80
2021/06/26 08:35:15;;;;;;;;;;;;;;;-142.75;56.80;76442.34;5074279;28;19991;-77
2021/06/26 08:37:43;;;;;;;;;;;;;;;-142.75;57.35;76446.28;5079193;28;19916;-78
2021/06/26 08:40:09;;;;;;;;;;;;;;;-142.75;57.30;76467.94;5057699;28;19930;-78
2021/06/26 08:42:35;;;;;;;;;;;;;;;-142.75;57.01;76464.00;5064615;28;20154;-79
2021/06/26 08:45:03;;;;;;;;;;;;;;;-142.75;56.73;76442.34;5063150;28;19923;-79
2021/06/26 08:47:28;;;;;;;;;;;;;;;-142.75;55.93;76410.84;5078332;28;19961;-77
2021/06/26 08:49:54;;;;;;;;;;;;;;;-142.75;55.00;76412.81;5081479;28;20378;-79
2021/06/26 08:52:19;;;;;;;;;;;;;;;-142.75;55.98;76438.41;5083506;28;20003;-79
2021/06/26 08:54:44;;;;;;;;;;;;;;;-142.75;56.01;76462.03;5074911;28;19920;-77
2021/06/26 08:57:10;;;;;;;;;;;;;;;-142.75;57.27;76464.00;5080591;28;19922;-79
2021/06/26 08:59:35;;;;;;;;;;;;;;;-142.75;57.85;76462.03;5065431;28;19966;-78
2021/06/26 09:02:01;;;;;;;;;;;;;;;-142.75;56.85;76467.94;5077574;28;19916;-78
2021/06/26 09:04:26;;;;;;;;;;;;;;;-142.75;57.22;76499.44;5078361;28;19916;-78
2021/06/26 09:06:52;;;;;;;;;;;;;;;-142.75;58.54;76511.25;5078430;28;19928;-76
2021/06/26 09:09:37;;;;;;;;;;;;;;;-142.75;57.96;76517.16;5069938;28;19916;-78
2021/06/26 09:12:07;;;;;;;;;;;;;;;-142.75;58.01;76521.09;5064263;28;19916;-81
2021/06/26 09:14:32;;;;;;;;;;;;;;;-142.75;57.83;76487.63;5080279;28;19925;-77
2021/06/26 09:16:58;;;;;;;;;;;;;;;-142.75;58.26;76487.63;5082498;28;19920;-77
2021/06/26 09:19:23;;;;;;;;;;;;;;;-142.75;56.54;76473.84;5080611;28;19916;-78
2021/06/26 09:22:08;;;;;;;;;;;;;;;-142.75;56.41;76475.81;5081589;28;19916;-78
2021/06/26 09:24:41;;;;;;;;;;;;;;;-142.75;56.79;76444.31;5097425;22;19928;-81
2021/06/26 09:27:06;;;;;;;;;;;;;;;-142.75;55.79;76446.28;5061014;28;19972;-78
2021/06/26 09:29:31;;;;;;;;;;;;;;;-142.75;56.29;76442.34;5053298;28;20029;-79
2021/06/26 09:32:01;;;;;;;;;;;;;;;-142.75;55.43;76440.38;5062755;28;19977;-79
2021/06/26 09:34:40;;;;;;;;;;;;;;;-142.75;56.74;76401.00;5060418;28;19974;-80
2021/06/26 09:37:06;;;;;;;;;;;;;;;-142.75;56.62;76389.19;5066298;28;20279;-80
2021/06/26 09:39:32;;;;;;;;;;;;;;;-142.75;54.98;76410.84;5053090;28;19967;-80
2021/06/26 09:41:58;;;;;;;;;;;;;;;-142.75;54.70;76426.59;5061405;28;19927;-79
2021/06/26 09:44:23;;;;;;;;;;;;;;;-142.75;55.77;76436.44;5050730;28;19925;-79
2021/06/26 09:46:50;;;;;;;;;;;;;;;-142.75;54.76;76450.22;5053038;28;19936;-79
2021/06/26 09:49:25;;;;;;;;;;;;;;;-142.75;56.06;76436.44;5052049;28;19938;-78
2021/06/26 09:51:55;;;;;;;;;;;;;;;-142.75;54.91;76414.78;5052453;28;20306;-81
2021/06/26 09:54:25;;;;;;;;;;;;;;;-142.75;54.21;76412.81;5057369;28;19963;-79
2021/06/26 09:56:51;;;;;;;;;;;;;;;-142.75;55.08;76416.75;5054097;28;19925;-78
2021/06/26 09:59:19;;;;;;;;;;;;;;;-142.75;53.89;76408.88;5054021;28;19958;-80
2021/06/26 10:01:46;;;;;;;;;;;;;;;-142.75;53.41;76401.00;5067569;28;20447;-79
2021/06/26 10:04:12;;;;;;;;;;;;;;;-142.75;54.29;76385.25;5063720;28;20614;-82
2021/06/26 10:06:38;;;;;;;;;;;;;;;-142.75;53.12;76357.69;5052871;28;19931;-79
2021/06/26 10:09:05;;;;;;;;;;;;;;;-142.75;55.17;76343.94;5056646;28;19916;-80
2021/06/26 10:11:31;;;;;;;;;;;;;;;-142.75;52.88;76292.75;5052586;28;19970;-80
2021/06/26 10:13:57;;;;;;;;;;;;;;;-142.75;52.60;76273.06;5057965;28;19917;-81
2021/06/26 10:16:23;;;;;;;;;;;;;;;-142.75;51.97;76239.59;5056388;28;19927;-81
2021/06/26 10:18:48;;;;;;;;;;;;;;;-142.75;52.97;76267.16;5052669;28;21615;-82
2021/06/26 10:21:14;;;;;;;;;;;;;;;-142.75;51.55;76263.22;5059865;28;19947;-82
2021/06/26 10:23:39;;;;;;;;;;;;;;;-142.75;51.66;76251.41;5059629;28;19934;-81
2021/06/26 10:26:04;;;;;;;;;;;;;;;-142.75;51.34;76255.34;5054716;28;19931;-84
2021/06/26 10:28:30;;;;;;;;;;;;;;;-142.75;51.95;76271.09;5052825;28;19967;-84
2021/06/26 10:31:12;;;;;;;;;;;;;;;-142.75;51.63;76282.91;5055065;28;19924;-83
2021/06/26 10:33:37;;;;;;;;;;;;;;;-142.75;51.65;76292.75;5054314;28;20011;-82
2021/06/26 10:36:02;;;;;;;;;;;;;;;-142.75;53.94;76273.06;5058706;28;19958;-84
2021/06/26 10:38:39;;;;;;;;;;;;;;;-142.75;51.79;76241.56;5064212;28;19916;-82
2021/06/26 10:41:14;;;;;;;;;;;;;;;-142.75;51.96;76237.63;5052028;28;20400;-82
2021/06/26 10:43:40;;;;;;;;;;;;;;;-142.75;52.22;76249.44;5061359;28;19921;-83
2021/06/26 10:46:07;;;;;;;;;;;;;;;-142.75;52.58;76235.66;5054605;28;19954;-81
2021/06/26 10:48:32;;;;;;;;;;;;;;;-142.75;53.01;76223.84;5055338;28;19963;-80
2021/06/26 10:50:57;;;;;;;;;;;;;;;-142.75;52.31;76190.41;5053990;28;19924;-81
2021/06/26 10:53:33;;;;;;;;;;;;;;;-142.75;50.21;76206.13;5051641;28;19993;-82
2021/06/26 10:55:59;;;;;;;;;;;;;;;-142.75;50.74;76221.88;5064359;28;20457;-85
2021/06/26 10:58:29;;;;;;;;;;;;;;;-142.75;51.11;76251.41;5053785;28;19979;-81
2021/06/26 11:00:54;;;;;;;;;;;;;;;-142.75;51.89;76282.91;5055246;28;20293;-82
2021/06/26 11:03:21;;;;;;;;;;;;;;;-142.75;51.33;76259.28;5067239;28;19927;-80
2021/06/26 11:05:46;;;;;;;;;;;;;;;-142.75;52.60;76273.06;5051405;28;19923;-82
2021/06/26 11:08:15;;;;;;;;;;;;;;;-142.75;51.90;76233.69;5065648;28;19920;-82
2021/06/26 11:10:50;;;;;;;;;;;;;;;-142.75;51.41;76223.84;5051626;28;19931;-79
2021/06/26 11:13:19;;;;;;;;;;;;;;;-142.75;51.50;76219.91;5052009;28;19916;-85
2021/06/26 11:15:44;;;;;;;;;;;;;;;-142.75;49.67;76202.19;5048496;28;19923;-84
2021/06/26 11:18:13;;;;;;;;;;;;;;;-142.75;51.42;76198.28;5056792;28;19991;-85
2021/06/26 11:20:39;;;;;;;;;;;;;;;-142.75;49.79;76184.50;5064376;28;19916;-80
2021/06/26 11:23:04;;;;;;;;;;;;;;;-142.75;49.56;76156.94;5051636;28;20443;-82
2021/06/26 11:25:30;;;;;;;;;;;;;;;-142.75;49.67;76135.28;5050433;28;19923;-82
2021/06/26 11:28:05;;;;;;;;;;;;;;;-142.75;47.83;76133.31;5065982;28;19916;-83
2021/06/26 11:30:31;;;;;;;;;;;;;;;-142.75;49.12;76151.03;5051015;28;20011;-83
2021/06/26 11:32:59;;;;;;;;;;;;;;;-142.75;48.72;76184.50;5053841;28;19997;-81
2021/06/26 11:35:35;;;;;;;;;;;;;;;-142.75;47.44;76149.06;5051051;28;20446;-80
2021/06/26 11:38:01;;;;;;;;;;;;;;;-142.75;47.62;76158.91;5065010;28;19923;-79
2021/06/26 11:40:27;;;;;;;;;;;;;;;-142.75;49.24;76166.78;5052564;28;19916;-79
2021/06/26 11:42:55;;;;;;;;;;;;;;;-142.75;47.24;76164.81;5049504;28;19943;-81
2021/06/26 11:45:22;;;;;;;;;;;;;;;-142.75;47.21;76131.34;5052357;28;19988;-80
2021/06/26 11:47:47;;;;;;;;;;;;;;;-142.75;46.80;76117.56;5051483;28;19946;-83
2021/06/26 11:50:13;;;;;;;;;;;;;;;-142.75;47.81;76095.91;5052347;28;20385;-80
2021/06/26 11:52:39;;;;;;;;;;;;;;;-142.75;46.75;76070.34;5049468;28;20011;-81
2021/06/26 11:55:04;;;;;;;;;;;;;;;-142.75;46.40;76030.97;5051428;28;20016;-81
2021/06/26 11:57:30;;;;;;;;;;;;;;;-142.75;45.04;75995.53;5065828;28;19920;-79
2021/06/26 11:59:56;;;;;;;;;;;;;;;-142.75;44.97;76046.72;5053852;28;19917;-79
2021/06/26 12:02:29;;;;;;;;;;;;;;;-142.75;46.44;76062.47;5050163;28;19947;-81
2021/06/26 12:04:54;;;;;;;;;;;;;;;-142.75;46.10;76088.03;5052446;28;20448;-77
2021/06/26 12:07:19;;;;;;;;;;;;;;;-142.75;45.40;76030.97;5068829;28;20046;-77
2021/06/26 12:09:45;;;;;;;;;;;;;;;-142.75;44.96;76027.03;5051204;28;19959;-77
2021/06/26 12:12:10;;;;;;;;;;;;;;;-142.75;45.91;75977.81;5048379;28;20393;-77
2021/06/26 12:14:37;;;;;;;;;;;;;;;-142.75;44.07;75995.53;5048664;28;19948;-77
2021/06/26 12:17:12;;;;;;;;;;;;;;;-142.75;45.91;75987.66;5048564;28;19922;-79
2021/06/26 12:19:38;;;;;;;;;;;;;;;-142.75;44.00;75985.69;5049646;28;20027;-80
2021/06/26 12:22:04;;;;;;;;;;;;;;;-142.75;43.80;75938.47;5047954;28;20019;-77